.
WxDataArchive / Data Records for 2015-10-02
2015-10-01 October 2015 2015-10-03

Data Records for Friday, 02 October 2015

Time	Temp	Chill	HIndex	Humid	Dewpt	 Wind 	HiWind	WindDir	Rain 	Barom
-----	----	-----	------	-----	-----	------	------	-------	-----	-----
00:00	50.7	50.7	50.7	64	39.0	2	4	112	0.00	30.235 
00:05	50.5	50.5	50.5	65	39.2	1	6	90	0.00	30.235 
00:10	50.4	50.4	50.4	65	39.1	2	6	68	0.00	30.235 
00:15	50.4	50.4	50.4	65	39.1	1	4	68	0.00	30.235 
00:20	50.2	50.2	50.2	65	38.9	1	4	90	0.00	30.235 
00:25	50.2	50.2	50.2	66	39.3	1	6	90	0.00	30.235 
00:30	50.1	50.1	50.1	66	39.2	1	5	90	0.00	30.233 
00:35	50.1	50.1	50.1	67	39.6	1	4	90	0.00	30.233 
00:40	50.1	50.1	50.1	67	39.6	2	7	90	0.00	30.233 
00:45	50.1	50.1	50.1	67	39.6	1	7	112	0.00	30.234 
00:50	49.9	49.9	49.9	67	39.4	1	4	90	0.00	30.234 
00:55	50.1	50.1	50.1	67	39.6	1	6	90	0.00	30.234 
01:00	50.1	50.1	50.1	67	39.6	1	6	112	0.00	30.236 
01:05	50.1	50.1	50.1	67	39.6	1	4	90	0.00	30.236 
01:10	50.1	50.1	50.1	67	39.6	1	5	68	0.00	30.236 
01:15	50.1	50.1	50.1	67	39.6	1	5	112	0.00	30.235 
01:20	50.1	50.1	50.1	67	39.6	1	4	112	0.00	30.235 
01:25	50.1	50.1	50.1	67	39.6	1	6	90	0.00	30.235 
01:30	50.1	50.1	50.1	67	39.6	1	6	112	0.00	30.234 
01:35	50.1	50.1	50.1	66	39.2	1	6	112	0.00	30.234 
01:40	50.1	50.1	50.1	66	39.2	1	5	90	0.00	30.234 
01:45	49.9	49.9	49.9	66	39.0	1	4	90	0.00	30.233 
01:50	49.9	49.9	49.9	66	39.0	1	7	90	0.00	30.233 
01:55	49.8	49.8	49.8	67	39.3	1	5	68	0.00	30.233 
02:00	49.8	49.8	49.8	67	39.3	1	5	90	0.00	30.222 
02:05	49.8	49.8	49.8	67	39.3	1	5	90	0.00	30.222 
02:10	49.8	49.8	49.8	67	39.3	1	5	90	0.00	30.222 
02:15	49.6	49.6	49.6	66	38.7	1	6	112	0.00	30.218 
02:20	49.6	49.6	49.6	67	39.1	1	6	68	0.00	30.218 
02:25	49.6	49.6	49.6	67	39.1	1	5	112	0.00	30.218 
02:30	49.5	49.5	49.5	67	39.0	1	6	112	0.00	30.213 
02:35	49.5	49.5	49.5	67	39.0	2	7	112	0.00	30.213 
02:40	49.5	49.5	49.5	68	39.4	2	6	90	0.00	30.213 
02:45	49.6	49.6	49.6	68	39.5	2	6	112	0.00	30.205 
02:50	49.5	49.5	49.5	68	39.4	1	6	68	0.00	30.205 
02:55	49.5	49.5	49.5	69	39.8	1	7	112	0.00	30.205 
03:00	49.5	49.5	49.5	69	39.8	1	4	45	0.00	30.202 
03:05	49.5	49.5	49.5	69	39.8	1	5	68	0.00	30.202 
03:10	49.5	49.5	49.5	69	39.8	1	4	90	0.00	30.202 
03:15	49.5	49.5	49.5	69	39.8	1	7	135	0.00	30.201 
03:20	49.5	49.5	49.5	69	39.8	1	5	90	0.00	30.201 
03:25	49.5	49.5	49.5	69	39.8	2	6	90	0.00	30.201 
03:30	49.6	49.6	49.6	69	39.9	1	5	112	0.00	30.201 
03:35	49.6	49.6	49.6	69	39.9	1	6	68	0.00	30.201 
03:40	49.6	49.6	49.6	69	39.9	1	5	112	0.00	30.201 
03:45	49.6	49.6	49.6	69	39.9	1	5	135	0.00	30.200 
03:50	49.6	49.6	49.6	69	39.9	1	5	90	0.00	30.200 
03:55	49.6	49.6	49.6	69	39.9	1	4	90	0.00	30.200 
04:00	49.6	49.6	49.6	69	39.9	1	5	90	0.00	30.199 
04:05	49.6	49.6	49.6	69	39.9	0	5	90	0.00	30.199 
04:10	49.8	49.8	49.8	69	40.0	1	6	112	0.00	30.199 
04:15	49.8	49.8	49.8	69	40.0	1	6	90	0.00	30.200 
04:20	49.9	49.9	49.9	69	40.1	1	4	135	0.00	30.200 
04:25	50.1	50.1	50.1	69	40.3	1	7	135	0.00	30.200 
04:30	50.1	50.1	50.1	69	40.3	2	9	90	0.00	30.196 
04:35	50.2	50.2	50.2	68	40.1	2	8	68	0.00	30.196 
04:40	50.4	50.4	50.4	69	40.6	1	5	68	0.00	30.196 
04:45	50.4	50.4	50.4	69	40.6	1	5	90	0.00	30.197 
04:50	50.4	50.4	50.4	68	40.2	2	7	90	0.00	30.197 
04:55	50.4	50.4	50.4	68	40.2	1	7	90	0.00	30.197 
05:00	50.4	50.4	50.4	69	40.6	1	5	90	0.00	30.198 
05:05	50.4	50.4	50.4	69	40.6	1	5	68	0.00	30.198 
05:10	50.4	50.4	50.4	69	40.6	1	6	90	0.00	30.198 
05:15	50.4	50.4	50.4	69	40.6	1	5	90	0.00	30.196 
05:20	50.4	50.4	50.4	68	40.2	2	5	112	0.00	30.196 
05:25	50.4	50.4	50.4	68	40.2	2	8	68	0.00	30.196 
05:30	50.4	50.4	50.4	68	40.2	1	5	90	0.00	30.195 
05:35	50.2	50.2	50.2	68	40.1	2	10	68	0.00	30.195 
05:40	50.2	50.2	50.2	68	40.1	2	7	112	0.00	30.195 
05:45	50.1	50.1	50.1	68	40.0	2	10	90	0.00	30.202 
05:50	50.1	50.1	50.1	68	40.0	2	9	22	0.00	30.202 
05:55	50.1	50.1	50.1	68	40.0	1	5	90	0.00	30.202 
06:00	49.9	49.9	49.9	68	39.8	2	6	90	0.00	30.203 
06:05	49.9	49.9	49.9	68	39.8	2	10	135	0.00	30.203 
06:10	49.8	49.8	49.8	68	39.7	2	9	90	0.00	30.203 
06:15	49.8	49.8	49.8	68	39.7	2	14	90	0.00	30.205 
06:20	49.8	49.8	49.8	68	39.7	1	5	112	0.00	30.205 
06:25	49.8	49.8	49.8	68	39.7	1	5	68	0.00	30.205 
06:30	49.8	49.8	49.8	68	39.7	1	6	112	0.00	30.207 
06:35	49.8	49.8	49.8	68	39.7	2	9	90	0.00	30.207 
06:40	49.8	49.8	49.8	68	39.7	2	6	90	0.00	30.207 
06:45	49.8	49.8	49.8	68	39.7	2	7	112	0.00	30.207 
06:50	49.8	49.8	49.8	68	39.7	2	9	68	0.00	30.207 
06:55	49.6	49.6	49.6	69	39.9	1	6	112	0.00	30.207 
07:00	49.6	49.6	49.6	69	39.9	2	5	90	0.00	30.208 
07:05	49.8	49.8	49.8	69	40.0	2	7	90	0.00	30.208 
07:10	49.8	49.8	49.8	69	40.0	1	4	68	0.00	30.208 
07:15	49.8	49.8	49.8	69	40.0	2	7	90	0.00	30.212 
07:20	49.9	49.9	49.9	69	40.1	2	6	90	0.00	30.212 
07:25	49.9	49.9	49.9	69	40.1	2	6	90	0.00	30.212 
07:30	49.9	49.9	49.9	69	40.1	2	6	68	0.00	30.216 
07:35	49.9	49.9	49.9	69	40.1	2	6	90	0.00	30.216 
07:40	49.9	49.9	49.9	69	40.1	2	5	68	0.00	30.216 
07:45	49.9	49.9	49.9	69	40.1	2	6	68	0.00	30.220 
07:50	49.8	49.8	49.8	69	40.0	2	7	90	0.00	30.220 
07:55	49.8	49.8	49.8	69	40.0	2	7	112	0.00	30.220 
08:00	49.6	49.6	49.6	69	39.9	2	10	90	0.00	30.217 
08:05	49.6	49.6	49.6	69	39.9	1	6	112	0.00	30.217 
08:10	49.6	49.6	49.6	69	39.9	2	7	90	0.00	30.217 
08:15	49.6	49.6	49.6	70	40.2	2	6	112	0.00	30.217 
08:20	49.6	49.6	49.6	69	39.9	2	9	90	0.00	30.217 
08:25	49.8	49.8	49.8	69	40.0	3	10	90	0.00	30.217 
08:30	49.8	49.8	49.8	69	40.0	2	7	90	0.00	30.214 
08:35	49.9	49.9	49.9	69	40.1	2	9	90	0.00	30.214 
08:40	50.1	50.1	50.1	69	40.3	2	13	112	0.00	30.214 
08:45	50.2	50.2	50.2	69	40.4	3	11	90	0.00	30.224 
08:50	50.4	50.4	50.4	68	40.2	3	9	90	0.00	30.224 
08:55	50.4	50.4	50.4	68	40.2	1	5	68	0.00	30.224 
09:00	50.5	50.5	50.5	68	40.3	2	6	68	0.00	30.226 
09:05	50.5	50.5	50.5	68	40.3	3	11	112	0.00	30.226 
09:10	50.7	50.7	50.7	68	40.5	2	7	112	0.00	30.226 
09:15	50.8	50.8	50.8	67	40.2	3	12	90	0.00	30.224 
09:20	51.0	51.0	51.0	68	40.8	2	8	112	0.00	30.224 
09:25	50.8	50.8	50.8	67	40.2	3	11	90	0.00	30.224 
09:30	50.7	50.7	50.7	68	40.5	3	9	90	0.00	30.228 
09:35	50.7	50.7	50.7	68	40.5	2	5	112	0.00	30.228 
09:40	50.8	50.8	50.8	68	40.6	3	10	90	0.00	30.228 
09:45	51.1	51.1	51.1	68	40.9	2	7	90	0.00	30.230 
09:50	51.6	51.6	51.6	67	41.0	2	9	68	0.00	30.230 
09:55	51.9	51.9	51.9	66	40.9	3	10	90	0.00	30.230 
10:00	52.0	52.0	52.0	67	41.4	3	9	90	0.00	30.228 
10:05	52.0	52.0	52.0	66	41.0	4	13	112	0.00	30.228 
10:10	52.3	52.3	52.3	67	41.7	3	10	90	0.00	30.228 
10:15	52.5	52.5	52.5	66	41.5	2	10	112	0.00	30.227 
10:20	52.3	52.3	52.3	66	41.3	3	10	90	0.00	30.227 
10:25	52.6	52.6	52.6	67	42.0	3	10	112	0.00	30.227 
10:30	53.1	53.1	53.1	65	41.6	4	12	90	0.00	30.228 
10:35	53.3	53.3	53.3	65	41.8	3	8	90	0.00	30.228 
10:40	53.3	53.3	53.3	65	41.8	4	10	90	0.00	30.228 
10:45	53.3	53.3	53.3	65	41.8	3	9	90	0.00	30.239 
10:50	53.3	53.3	53.3	65	41.8	3	11	90	0.00	30.239 
10:55	53.5	53.5	53.5	65	42.0	3	11	112	0.00	30.239 
11:00	53.8	53.8	53.8	65	42.3	3	11	90	0.00	30.245 
11:05	53.9	53.9	53.9	65	42.4	3	19	90	0.00	30.245 
11:10	54.1	54.1	54.1	66	43.0	2	7	90	0.00	30.245 
11:15	54.4	54.4	54.4	64	42.5	4	12	90	0.00	30.240 
11:20	54.2	54.2	54.2	65	42.7	4	13	90	0.00	30.240 
11:25	54.4	54.4	54.4	65	42.9	3	8	90	0.00	30.240 
11:30	54.7	54.7	54.7	63	42.4	3	9	90	0.00	30.243 
11:35	54.8	54.8	54.8	63	42.4	4	13	90	0.00	30.243 
11:40	55.3	55.3	55.3	62	42.5	5	14	90	0.00	30.243 
11:45	55.6	55.6	55.6	62	42.8	5	11	90	0.00	30.251 
11:50	56.0	56.0	56.0	61	42.7	4	15	90	0.00	30.251 
11:55	56.2	56.2	56.2	60	42.5	5	14	112	0.00	30.251 
12:00	55.9	55.9	55.9	61	42.6	4	12	68	0.00	30.249 
12:05	55.9	55.9	55.9	61	42.6	4	10	90	0.00	30.249 
12:10	55.7	55.7	55.7	61	42.5	5	11	90	0.00	30.249 
12:15	56.0	56.0	56.0	61	42.7	5	14	90	0.00	30.241 
12:20	56.0	56.0	56.0	61	42.7	5	12	90	0.00	30.241 
12:25	56.2	56.2	56.2	60	42.5	3	9	90	0.00	30.241 
12:30	56.2	56.2	56.2	61	42.9	4	11	90	0.00	30.240 
12:35	56.0	56.0	56.0	61	42.7	3	10	90	0.00	30.240 
12:40	56.3	56.3	56.3	62	43.4	4	10	90	0.00	30.240 
12:45	56.5	56.5	56.5	61	43.2	3	10	90	0.00	30.241 
12:50	56.5	56.5	56.5	61	43.2	3	10	68	0.00	30.241 
12:55	56.3	56.3	56.3	61	43.0	3	7	68	0.00	30.241 
13:00	56.2	56.2	56.2	62	43.4	3	9	90	0.00	30.238 
13:05	56.2	56.2	56.2	61	42.9	3	8	90	0.00	30.238 
13:10	56.2	56.2	56.2	62	43.4	3	9	90	0.00	30.238 
13:15	56.3	56.3	56.3	61	43.0	3	16	90	0.00	30.232 
13:20	56.5	56.5	56.5	60	42.8	4	12	90	0.00	30.232 
13:25	56.6	56.6	56.6	60	42.9	4	11	90	0.00	30.232 
13:30	56.9	56.9	56.9	59	42.7	3	12	90	0.00	30.229 
13:35	57.2	57.2	57.2	58	42.6	4	11	112	0.00	30.229 
13:40	57.5	57.5	57.5	55	41.5	4	10	90	0.00	30.229 
13:45	58.0	58.0	58.0	53	41.0	4	11	90	0.00	30.228 
13:50	58.1	58.1	58.1	51	40.1	4	12	112	0.00	30.228 
13:55	57.6	57.6	57.6	53	40.6	4	16	90	0.00	30.228 
14:00	57.2	57.2	57.2	52	39.7	4	13	90	0.00	30.228 
14:05	57.2	57.2	57.2	52	39.7	6	12	90	0.00	30.228 
14:10	57.3	57.3	57.3	51	39.3	4	15	112	0.00	30.228 
14:15	57.5	57.5	57.5	50	39.0	5	12	90	0.00	30.223 
14:20	57.8	57.8	57.8	50	39.3	3	15	112	0.00	30.223 
14:25	58.1	58.1	58.1	50	39.6	4	13	112	0.00	30.223 
14:30	58.1	58.1	58.1	49	39.0	5	14	90	0.00	30.221 
14:35	58.3	58.3	58.3	50	39.7	3	13	112	0.00	30.221 
14:40	58.3	58.3	58.3	48	38.7	3	11	112	0.00	30.221 
14:45	58.3	58.3	58.3	48	38.7	4	13	112	0.00	30.218 
14:50	58.3	58.3	58.3	46	37.6	5	12	112	0.00	30.218 
14:55	58.1	58.1	58.1	45	36.9	5	13	90	0.00	30.218 
15:00	58.0	58.0	58.0	44	36.2	5	15	90	0.00	30.219 
15:05	57.8	57.8	57.8	43	35.5	6	14	90	0.00	30.219 
15:10	57.6	57.6	57.6	44	35.8	5	17	90	0.00	30.219 
15:15	57.2	57.2	57.2	44	35.5	6	15	90	0.00	30.218 
15:20	56.9	56.9	56.9	45	35.8	4	13	90	0.00	30.218 
15:25	56.9	56.9	56.9	45	35.8	3	10	112	0.00	30.218 
15:30	56.9	56.9	56.9	44	35.2	3	10	90	0.00	30.213 
15:35	57.0	57.0	57.0	44	35.3	3	9	90	0.00	30.213 
15:40	57.0	57.0	57.0	42	34.1	6	14	90	0.00	30.213 
15:45	57.0	57.0	57.0	43	34.7	4	12	90	0.00	30.215 
15:50	57.0	57.0	57.0	41	33.5	3	10	90	0.00	30.215 
15:55	57.0	57.0	57.0	42	34.1	6	15	90	0.00	30.215 
16:00	56.7	56.7	56.7	44	35.0	5	14	90	0.00	30.216 
16:05	56.6	56.6	56.6	44	34.9	3	11	90	0.00	30.216 
16:10	56.6	56.6	56.6	44	34.9	3	10	90	0.00	30.216 
16:15	56.5	56.5	56.5	45	35.4	3	12	90	0.00	30.209 
16:20	56.5	56.5	56.5	43	34.3	3	10	112	0.00	30.209 
16:25	56.5	56.5	56.5	43	34.3	3	9	90	0.00	30.209 
16:30	56.3	56.3	56.3	42	33.5	3	9	90	0.00	30.215 
16:35	56.2	56.2	56.2	43	34.0	3	9	90	0.00	30.215 
16:40	56.0	56.0	56.0	43	33.8	3	10	90	0.00	30.215 
16:45	55.9	55.9	55.9	43	33.7	3	12	90	0.00	30.213 
16:50	55.9	55.9	55.9	44	34.3	3	10	112	0.00	30.213 
16:55	55.9	55.9	55.9	43	33.7	2	6	112	0.00	30.213 
17:00	55.9	55.9	55.9	43	33.7	3	9	90	0.00	30.211 
17:05	55.7	55.7	55.7	43	33.6	3	11	90	0.00	30.211 
17:10	55.7	55.7	55.7	43	33.6	3	9	90	0.00	30.211 
17:15	55.6	55.6	55.6	43	33.5	3	10	112	0.00	30.207 
17:20	55.6	55.6	55.6	44	34.0	2	9	112	0.00	30.207 
17:25	55.6	55.6	55.6	43	33.5	2	6	112	0.00	30.207 
17:30	55.6	55.6	55.6	43	33.5	2	10	112	0.00	30.211 
17:35	55.6	55.6	55.6	43	33.5	3	9	90	0.00	30.211 
17:40	55.6	55.6	55.6	44	34.0	3	10	112	0.00	30.211 
17:45	55.6	55.6	55.6	43	33.5	3	10	112	0.00	30.206 
17:50	55.4	55.4	55.4	43	33.3	3	10	90	0.00	30.206 
17:55	55.3	55.3	55.3	44	33.8	3	13	90	0.00	30.206 
18:00	55.3	55.3	55.3	45	34.3	3	12	90	0.00	30.206 
18:05	55.3	55.3	55.3	45	34.3	2	6	90	0.00	30.206 
18:10	55.3	55.3	55.3	44	33.8	2	9	112	0.00	30.206 
18:15	55.3	55.3	55.3	44	33.8	3	9	90	0.00	30.209 
18:20	55.3	55.3	55.3	44	33.8	4	10	112	0.00	30.209 
18:25	55.3	55.3	55.3	44	33.8	4	11	90	0.00	30.209 
18:30	55.1	55.1	55.1	44	33.6	2	11	90	0.00	30.211 
18:35	55.1	55.1	55.1	45	34.1	3	8	90	0.00	30.211 
18:40	55.0	55.0	55.0	45	34.1	2	10	90	0.00	30.211 
18:45	54.8	54.8	54.8	45	33.9	2	9	90	0.00	30.212 
18:50	54.8	54.8	54.8	45	33.9	3	10	90	0.00	30.212 
18:55	54.7	54.7	54.7	46	34.3	2	7	90	0.00	30.212 
19:00	54.5	54.5	54.5	46	34.1	3	9	90	0.00	30.222 
19:05	54.5	54.5	54.5	46	34.1	3	11	90	0.00	30.222 
19:10	54.4	54.4	54.4	46	34.1	3	7	90	0.00	30.222 
19:15	54.2	54.2	54.2	46	33.9	4	17	112	0.00	30.210 
19:20	54.1	54.1	54.1	47	34.3	3	10	90	0.00	30.210 
19:25	53.9	53.9	53.9	48	34.7	2	7	112	0.00	30.210 
19:30	53.8	53.8	53.8	48	34.6	3	18	90	0.00	30.224 
19:35	53.8	53.8	53.8	49	35.1	3	9	90	0.00	30.224 
19:40	53.6	53.6	53.6	49	34.9	2	7	90	0.00	30.224 
19:45	53.5	53.5	53.5	50	35.3	2	5	90	0.00	30.223 
19:50	53.5	53.5	53.5	49	34.8	2	10	90	0.00	30.223 
19:55	53.3	53.3	53.3	50	35.1	2	7	90	0.00	30.223 
20:00	53.2	53.2	53.2	50	35.0	2	7	90	0.00	30.219 
20:05	53.2	53.2	53.2	50	35.0	2	13	112	0.00	30.219 
20:10	53.2	53.2	53.2	49	34.5	3	11	68	0.00	30.219 
20:15	53.1	53.1	53.1	50	35.0	2	10	90	0.00	30.210 
20:20	52.9	52.9	52.9	50	34.8	3	9	112	0.00	30.210 
20:25	52.9	52.9	52.9	50	34.8	3	10	90	0.00	30.210 
20:30	52.8	52.8	52.8	50	34.7	3	9	90	0.00	30.220 
20:35	52.8	52.8	52.8	50	34.7	3	14	90	0.00	30.220 
20:40	52.6	52.6	52.6	50	34.5	3	7	112	0.00	30.220 
20:45	52.6	52.6	52.6	50	34.5	2	9	45	0.00	30.216 
20:50	52.5	52.5	52.5	50	34.4	3	9	68	0.00	30.216 
20:55	52.5	52.5	52.5	50	34.4	2	11	90	0.00	30.216 
21:00	52.3	52.3	52.3	50	34.2	2	7	112	0.00	30.216 
21:05	52.3	52.3	52.3	50	34.2	2	9	90	0.00	30.216 
21:10	52.3	52.3	52.3	50	34.2	3	11	90	0.00	30.216 
21:15	52.2	52.2	52.2	50	34.1	2	11	68	0.00	30.222 
21:20	52.2	52.2	52.2	50	34.1	1	5	112	0.00	30.222 
21:25	52.2	52.2	52.2	50	34.1	2	6	90	0.00	30.222 
21:30	52.0	52.0	52.0	50	33.9	2	5	90	0.00	30.223 
21:35	52.0	52.0	52.0	50	33.9	2	7	90	0.00	30.223 
21:40	52.0	52.0	52.0	50	33.9	2	11	68	0.00	30.223 
21:45	52.0	52.0	52.0	50	33.9	3	14	112	0.00	30.220 
21:50	52.0	52.0	52.0	50	33.9	2	9	90	0.00	30.220 
21:55	51.9	51.9	51.9	50	33.9	2	7	112	0.00	30.220 
22:00	51.9	51.9	51.9	49	33.3	2	7	90	0.00	30.221 
22:05	51.9	51.9	51.9	50	33.9	2	11	90	0.00	30.221 
22:10	51.9	51.9	51.9	50	33.9	2	8	90	0.00	30.221 
22:15	51.7	51.7	51.7	50	33.7	3	7	68	0.00	30.213 
22:20	51.7	51.7	51.7	50	33.7	3	9	90	0.00	30.213 
22:25	51.7	51.7	51.7	50	33.7	3	10	112	0.00	30.213 
22:30	51.7	51.7	51.7	50	33.7	2	9	90	0.00	30.220 
22:35	51.7	51.7	51.7	50	33.7	3	9	112	0.00	30.220 
22:40	51.6	51.6	51.6	51	34.1	3	14	112	0.00	30.220 
22:45	51.4	51.4	51.4	51	33.9	2	14	112	0.00	30.220 
22:50	51.4	51.4	51.4	52	34.4	2	6	68	0.00	30.220 
22:55	51.3	51.3	51.3	52	34.3	2	12	112	0.00	30.220 
23:00	51.1	51.1	51.1	54	35.0	3	10	112	0.00	30.216 
23:05	51.0	51.0	51.0	55	35.4	2	6	90	0.00	30.216 
23:10	50.7	50.7	50.7	56	35.6	2	10	68	0.00	30.216 
23:15	50.4	50.4	50.4	57	35.7	2	9	90	0.00	30.210 
23:20	50.2	50.2	50.2	58	36.0	1	6	90	0.00	30.210 
23:25	49.9	49.9	49.9	59	36.1	2	9	112	0.00	30.210 
23:30	49.6	49.6	49.6	60	36.3	2	10	90	0.00	30.206 
23:35	49.5	49.5	49.5	62	37.0	1	6	135	0.00	30.206 
23:40	49.2	49.2	49.2	63	37.1	2	9	112	0.00	30.206 
23:45	49.1	49.1	49.1	64	37.5	2	9	112	0.00	30.209 
23:50	48.8	48.8	48.8	66	38.0	2	7	90	0.00	30.209 
23:55	48.5	48.5	48.5	68	38.4	1	7	90	0.00	30.209 

CoCoRaHS
IN-AL-39
A2 Web Hosting
Creative Commons License
GoDaddy
search engine by freefind advanced

loaded 2018-11-15 15:48:46 • last modified 2010-11-18 10:43:29
Privacy PolicyDisclaimer
• wx.awcolley.com is powered by PmWiki v.2002016 •
• all content (unless otherwise noted) © 2018 A W Colley